Time,TemperatureF,DewpointF,PressureIn,WindDirection,WindDirectionDegrees,WindSpeedMPH,WindSpeedGustMPH,Humidity,HourlyPrecipIn,Conditions,Clouds,dailyrainin,SoftwareType,DateUTC
2013-09-03 01:22:00,47.0,47.0,-100.00,East,80,0.0,1.0,98,-99.99,,,-99.99,,2013-09-03 06:22:00,
2013-09-03 01:32:00,47.0,47.0,-100.00,East,80,0.0,1.0,98,-99.99,,,-99.99,,2013-09-03 06:32:00,
2013-09-03 01:43:00,47.0,47.0,-100.00,East,80,0.0,1.0,98,-99.99,,,-99.99,,2013-09-03 06:43:00,
2013-09-03 01:52:00,47.0,47.0,-100.00,East,80,0.0,1.0,98,-99.99,,,-99.99,,2013-09-03 06:52:00,
2013-09-03 02:22:00,45.0,45.0,-100.00,ESE,115,0.0,1.0,99,-99.99,,,-99.99,,2013-09-03 07:22:00,
2013-09-03 02:32:00,45.0,45.0,-100.00,ESE,115,0.0,1.0,99,-99.99,,,-99.99,,2013-09-03 07:32:00,
2013-09-03 02:42:00,45.0,45.0,-100.00,ESE,115,0.0,1.0,99,-99.99,,,-99.99,,2013-09-03 07:42:00,
2013-09-03 02:52:00,45.0,45.0,-100.00,ESE,115,0.0,1.0,99,-99.99,,,-99.99,,2013-09-03 07:52:00,
2013-09-03 03:22:00,44.0,44.0,-100.00,South,180,0.0,2.0,99,-99.99,,,-99.99,,2013-09-03 08:22:00,
2013-09-03 03:32:00,44.0,44.0,-100.00,South,180,0.0,2.0,99,-99.99,,,-99.99,,2013-09-03 08:32:00,
2013-09-03 03:42:00,44.0,44.0,-100.00,South,180,0.0,2.0,99,-99.99,,,-99.99,,2013-09-03 08:42:00,
2013-09-03 03:52:00,44.0,44.0,-100.00,South,180,0.0,2.0,99,-99.99,,,-99.99,,2013-09-03 08:52:00,
2013-09-03 03:53:00,44.0,44.0,-100.00,SE,145,1.0,2.0,99,-99.99,,,-99.99,,2013-09-03 08:53:00,
2013-09-03 04:22:00,44.0,44.0,-100.00,SE,145,1.0,2.0,99,-99.99,,,-99.99,,2013-09-03 09:22:00,
2013-09-03 04:33:00,44.0,44.0,-100.00,SE,145,1.0,2.0,99,-99.99,,,-99.99,,2013-09-03 09:33:00,
2013-09-03 04:43:00,44.0,44.0,-100.00,SE,145,1.0,2.0,99,-99.99,,,-99.99,,2013-09-03 09:43:00,
2013-09-03 07:22:00,41.0,41.0,-100.00,SE,135,0.0,1.0,99,-99.99,,,-99.99,,2013-09-03 12:22:00,
2013-09-03 07:32:00,41.0,41.0,-100.00,SE,135,0.0,1.0,99,-99.99,,,-99.99,,2013-09-03 12:32:00,
2013-09-03 07:42:00,41.0,41.0,-100.00,SE,135,0.0,1.0,99,-99.99,,,-99.99,,2013-09-03 12:42:00,
2013-09-03 07:52:00,41.0,41.0,-100.00,SE,135,0.0,1.0,99,-99.99,,,-99.99,,2013-09-03 12:52:00,
2013-09-03 08:22:00,45.0,45.0,-100.00,SSE,160,0.0,1.0,99,-99.99,,,-99.99,,2013-09-03 13:22:00,
2013-09-03 08:32:00,45.0,45.0,-100.00,SSE,160,0.0,1.0,99,-99.99,,,-99.99,,2013-09-03 13:32:00,
2013-09-03 08:42:00,45.0,45.0,-100.00,SSE,160,0.0,1.0,99,-99.99,,,-99.99,,2013-09-03 13:42:00,
2013-09-03 08:52:00,45.0,45.0,-100.00,SSE,160,0.0,1.0,99,-99.99,,,-99.99,,2013-09-03 13:52:00,
2013-09-03 09:21:00,54.0,53.0,-100.00,SW,230,3.0,4.0,98,-99.99,,,-99.99,,2013-09-03 14:21:00,
2013-09-03 09:32:00,54.0,53.0,-100.00,SW,230,3.0,4.0,98,-99.99,,,-99.99,,2013-09-03 14:32:00,
2013-09-03 09:42:00,54.0,53.0,-100.00,SW,230,3.0,4.0,98,-99.99,,,-99.99,,2013-09-03 14:42:00,
2013-09-03 09:52:00,54.0,53.0,-100.00,SW,230,3.0,4.0,98,-99.99,,,-99.99,,2013-09-03 14:52:00,
2013-09-03 09:53:00,63.0,51.0,-100.00,SW,230,4.0,9.0,64,-99.99,,,-99.99,,2013-09-03 14:53:00,
2013-09-03 10:22:00,63.0,51.0,-100.00,SW,230,4.0,9.0,64,-99.99,,,-99.99,,2013-09-03 15:22:00,
2013-09-03 10:43:00,63.0,51.0,-100.00,SW,230,4.0,9.0,64,-99.99,,,-99.99,,2013-09-03 15:43:00,
2013-09-03 10:54:00,68.0,49.0,-100.00,WSW,250,4.0,11.0,51,-99.99,,,-99.99,,2013-09-03 15:54:00,
2013-09-03 11:24:00,68.0,49.0,-100.00,WSW,250,4.0,11.0,51,-99.99,,,-99.99,,2013-09-03 16:24:00,
2013-09-03 11:33:00,68.0,49.0,-100.00,WSW,250,4.0,11.0,51,-99.99,,,-99.99,,2013-09-03 16:33:00,
2013-09-03 11:43:00,68.0,49.0,-100.00,WSW,250,4.0,11.0,51,-99.99,,,-99.99,,2013-09-03 16:43:00,
2013-09-03 12:23:00,70.0,48.0,-100.00,NW,305,4.0,11.0,47,-99.99,,,-99.99,,2013-09-03 17:23:00,
2013-09-03 12:34:00,70.0,48.0,-100.00,NW,305,4.0,11.0,47,-99.99,,,-99.99,,2013-09-03 17:34:00,
2013-09-03 12:43:00,70.0,48.0,-100.00,NW,305,4.0,11.0,47,-99.99,,,-99.99,,2013-09-03 17:43:00,
2013-09-03 12:52:00,70.0,48.0,-100.00,NW,305,4.0,11.0,47,-99.99,,,-99.99,,2013-09-03 17:52:00,
2013-09-03 13:22:00,73.0,49.0,-100.00,WNW,285,2.0,9.0,43,-99.99,,,-99.99,,2013-09-03 18:22:00,
2013-09-03 13:32:00,73.0,49.0,-100.00,WNW,285,2.0,9.0,43,-99.99,,,-99.99,,2013-09-03 18:32:00,
2013-09-03 13:43:00,73.0,49.0,-100.00,WNW,285,2.0,9.0,43,-99.99,,,-99.99,,2013-09-03 18:43:00,
2013-09-03 13:52:00,73.0,49.0,-100.00,WNW,285,2.0,9.0,43,-99.99,,,-99.99,,2013-09-03 18:52:00,
2013-09-03 14:22:00,74.0,49.0,-100.00,WSW,245,5.0,9.0,42,-99.99,,,-99.99,,2013-09-03 19:22:00,
2013-09-03 14:32:00,74.0,49.0,-100.00,WSW,245,5.0,9.0,42,-99.99,,,-99.99,,2013-09-03 19:32:00,
2013-09-03 14:42:00,74.0,49.0,-100.00,WSW,245,5.0,9.0,42,-99.99,,,-99.99,,2013-09-03 19:42:00,
2013-09-03 14:52:00,74.0,49.0,-100.00,WSW,245,5.0,9.0,42,-99.99,,,-99.99,,2013-09-03 19:52:00,
2013-09-03 15:22:00,78.0,50.0,-100.00,WNW,290,3.0,9.0,38,-99.99,,,-99.99,,2013-09-03 20:22:00,
2013-09-03 15:32:00,78.0,50.0,-100.00,WNW,290,3.0,9.0,38,-99.99,,,-99.99,,2013-09-03 20:32:00,
2013-09-03 15:42:00,78.0,50.0,-100.00,WNW,290,3.0,9.0,38,-99.99,,,-99.99,,2013-09-03 20:42:00,
2013-09-03 15:52:00,78.0,50.0,-100.00,WNW,290,3.0,9.0,38,-99.99,,,-99.99,,2013-09-03 20:52:00,
2013-09-03 15:53:00,75.0,49.0,-100.00,WSW,250,6.0,14.0,40,-99.99,,,-99.99,,2013-09-03 20:53:00,
2013-09-03 16:22:00,75.0,49.0,-100.00,WSW,250,6.0,14.0,40,-99.99,,,-99.99,,2013-09-03 21:22:00,
2013-09-03 16:34:00,75.0,49.0,-100.00,WSW,250,6.0,14.0,40,-99.99,,,-99.99,,2013-09-03 21:34:00,
2013-09-03 16:44:00,75.0,49.0,-100.00,WSW,250,6.0,14.0,40,-99.99,,,-99.99,,2013-09-03 21:44:00,
2013-09-03 17:23:00,75.0,49.0,-100.00,SSW,205,4.0,12.0,39,-99.99,,,-99.99,,2013-09-03 22:23:00,
2013-09-03 17:34:00,75.0,49.0,-100.00,SSW,205,4.0,12.0,39,-99.99,,,-99.99,,2013-09-03 22:34:00,
2013-09-03 17:43:00,75.0,49.0,-100.00,SSW,205,4.0,12.0,39,-99.99,,,-99.99,,2013-09-03 22:43:00,
2013-09-03 17:52:00,75.0,49.0,-100.00,SSW,205,4.0,12.0,39,-99.99,,,-99.99,,2013-09-03 22:52:00,
2013-09-03 19:22:00,72.0,50.0,-100.00,SW,235,3.0,7.0,46,-99.99,,,-99.99,,2013-09-04 00:22:00,
2013-09-03 19:32:00,72.0,50.0,-100.00,SW,235,3.0,7.0,46,-99.99,,,-99.99,,2013-09-04 00:32:00,
2013-09-03 19:42:00,72.0,50.0,-100.00,SW,235,3.0,7.0,46,-99.99,,,-99.99,,2013-09-04 00:42:00,
2013-09-03 19:52:00,72.0,50.0,-100.00,SW,235,3.0,7.0,46,-99.99,,,-99.99,,2013-09-04 00:52:00,
2013-09-03 20:22:00,65.0,52.0,-100.00,West,260,1.0,4.0,62,-99.99,,,-99.99,,2013-09-04 01:22:00,
2013-09-03 20:32:00,65.0,52.0,-100.00,West,260,1.0,4.0,62,-99.99,,,-99.99,,2013-09-04 01:32:00,
2013-09-03 20:42:00,65.0,52.0,-100.00,West,260,1.0,4.0,62,-99.99,,,-99.99,,2013-09-04 01:42:00,
2013-09-03 20:52:00,65.0,52.0,-100.00,West,260,1.0,4.0,62,-99.99,,,-99.99,,2013-09-04 01:52:00,